Aérodrome :
LOGIN :

S'inscrire | Disclaimer

   EN    FR    IT 

 










Légende :    VFR   VFR Marginal   IFR   IFR Intensif   IFR Très Intensif
Visi : 
Plafond : 
>= 8 km
>= 3000ft
5 à 8 km
1000 à 3000 ft
1500m à 5 km
500 à 1000 ft
800 à 1500m
200 à 500 ft
< 800m
< 200 ft
Symboles :   Orages  Brouillard  Fortes neiges  Fortes précipitations  Vent > 20 kt
SIGMETs :   Divers  Orages  Givrage  Turbulence  Onde Orograph.  Cendres Volcan.







- Altitude de l'aérodrome : 1367 ft
- Code IATA : FDH


EDNY - Friedrichshafen

DERNIER METAR :
  • 220350Z AUTO VRB02KT 7000 RA BKN006 BKN008 OVC013 02/01 Q1012

METARs EXPIRÉS :
  • 220320Z AUTO 13003KT 8000 RA FEW003 SCT007 OVC009 02/01 Q1012
  • 220250Z AUTO VRB01KT 5000 RA FEW003 BKN009 OVC024 01/01 Q1012
  • 220220Z AUTO 12004KT 090V150 9000 RA FEW004 BKN010 OVC015 02/01 Q1012
  • 220150Z AUTO 13006KT 9999 RA FEW006 BKN010 OVC019 01/01 Q1013
  • 220120Z AUTO 14005KT 110V170 9999 -RASN FEW011 SCT019 OVC028 01/01 Q1013

TAF AMD TAF EDNY
Valide du 22 à 02h jusqu'au 23 à 00h UTC


220206Z 2202/2224 VRB03KT 6000 RA BKN010
TEMPO 2202/2205 1500 RADZ BKN003
BECMG 2205/2207 23007KT NSW
BECMG 2207/2209 BKN015
BECMG 2212/2214 RA BKN012
TEMPO 2214/2220 25012KT 2500 +RA BKN007
BECMG 2221/2224 NSW
Pas de NOTAMs connus pour ce terrain.
2 SIGMETs publiés pour la FIR München (EDMM) :
 
Givrage fort avec pluie surfondue
EDMM SIGMET 4 VALID 220406/220630 EDZM
EDMM MUNCHEN FIR SEV ICE (FZRA) FCST WI N4931 E01105 - N4746 E01111 - N4748 E00935 - N4842 E00933 - N4931 E01105 SFC/3000FT MOV E NC=
Givrage fort
EDMM SIGMET 3 VALID 220400/220630 EDZM
EDMM MUNCHEN FIR SEV ICE FCST WI N5152 E01102 - N4836 E01326 - N4730 E01256 - N4724 E01023 - N4902 E01015 - N4927 E01057 - N5052 E00959 - N5152 E01102 3000FT/FL160 MOV E WKN=



MET'MAP, la Météo Aéronautique d'un coup d'oeil ! - Copyright ORBIFLY Décembre 2007 - Disclaimer

ORBIFLY MET'MAP TEAM :

Programmation & Développement : Alexandra Zaïnal
Conception & Développement : Baudouin d'Aumeries
Co-Programmation & Développement : Marc-Olivier Méhu
Soutien technique & logistique : Manuel Goepfert

Contact : metmap@orbifly.com




SOURCES & CREDITS :

   NOAA